sensor_id;sensor_type;location;lat;lon;timestamp;temperature;humidity
6379;DHT22;3222;48.858;10.128;2023-07-16T00:00:30;23.80;99.90
6379;DHT22;3222;48.858;10.128;2023-07-16T00:02:57;23.80;99.90
6379;DHT22;3222;48.858;10.128;2023-07-16T00:05:23;23.80;99.90
6379;DHT22;3222;48.858;10.128;2023-07-16T00:07:49;23.80;99.90
6379;DHT22;3222;48.858;10.128;2023-07-16T00:10:15;23.80;99.90
6379;DHT22;3222;48.858;10.128;2023-07-16T00:12:41;23.70;99.90
6379;DHT22;3222;48.858;10.128;2023-07-16T00:15:07;23.70;99.90
6379;DHT22;3222;48.858;10.128;2023-07-16T00:17:36;23.80;99.90
6379;DHT22;3222;48.858;10.128;2023-07-16T00:20:02;23.80;99.90
6379;DHT22;3222;48.858;10.128;2023-07-16T00:22:27;23.80;99.90
6379;DHT22;3222;48.858;10.128;2023-07-16T00:24:53;23.90;99.90
6379;DHT22;3222;48.858;10.128;2023-07-16T00:27:19;23.90;99.90
6379;DHT22;3222;48.858;10.128;2023-07-16T00:29:45;23.90;99.90
6379;DHT22;3222;48.858;10.128;2023-07-16T00:32:11;23.90;99.90
6379;DHT22;3222;48.858;10.128;2023-07-16T00:34:37;23.90;99.90
6379;DHT22;3222;48.858;10.128;2023-07-16T00:37:03;23.80;99.90
6379;DHT22;3222;48.858;10.128;2023-07-16T00:39:29;23.70;99.90
6379;DHT22;3222;48.858;10.128;2023-07-16T00:41:55;23.70;99.90
6379;DHT22;3222;48.858;10.128;2023-07-16T00:44:21;23.50;99.90
6379;DHT22;3222;48.858;10.128;2023-07-16T00:46:48;23.60;99.90
6379;DHT22;3222;48.858;10.128;2023-07-16T00:49:14;23.60;99.90
6379;DHT22;3222;48.858;10.128;2023-07-16T00:51:39;23.60;99.90
6379;DHT22;3222;48.858;10.128;2023-07-16T00:54:06;23.50;99.90
6379;DHT22;3222;48.858;10.128;2023-07-16T00:56:32;23.50;99.90
6379;DHT22;3222;48.858;10.128;2023-07-16T00:58:58;23.40;99.90
6379;DHT22;3222;48.858;10.128;2023-07-16T01:01:23;23.40;99.90
6379;DHT22;3222;48.858;10.128;2023-07-16T01:03:50;23.40;99.90
6379;DHT22;3222;48.858;10.128;2023-07-16T01:09:01;23.40;99.90
6379;DHT22;3222;48.858;10.128;2023-07-16T01:11:28;23.20;99.90
6379;DHT22;3222;48.858;10.128;2023-07-16T01:13:56;23.20;99.90
6379;DHT22;3222;48.858;10.128;2023-07-16T01:16:24;23.10;99.90
6379;DHT22;3222;48.858;10.128;2023-07-16T01:18:50;23.10;99.90
6379;DHT22;3222;48.858;10.128;2023-07-16T01:21:19;23.00;99.90
6379;DHT22;3222;48.858;10.128;2023-07-16T01:26:32;22.90;99.90
6379;DHT22;3222;48.858;10.128;2023-07-16T01:29:33;23.00;99.90
6379;DHT22;3222;48.858;10.128;2023-07-16T01:32:04;22.90;99.90
6379;DHT22;3222;48.858;10.128;2023-07-16T01:34:32;22.90;99.90
6379;DHT22;3222;48.858;10.128;2023-07-16T01:37:02;22.80;99.90
6379;DHT22;3222;48.858;10.128;2023-07-16T01:39:29;22.80;99.90
6379;DHT22;3222;48.858;10.128;2023-07-16T01:41:55;22.90;99.90
6379;DHT22;3222;48.858;10.128;2023-07-16T01:44:21;22.80;99.90
6379;DHT22;3222;48.858;10.128;2023-07-16T01:47:30;22.70;99.90
6379;DHT22;3222;48.858;10.128;2023-07-16T01:49:59;22.70;99.90
6379;DHT22;3222;48.858;10.128;2023-07-16T01:52:24;22.90;99.90
6379;DHT22;3222;48.858;10.128;2023-07-16T01:54:50;22.70;99.90
6379;DHT22;3222;48.858;10.128;2023-07-16T01:57:16;22.60;99.90
6379;DHT22;3222;48.858;10.128;2023-07-16T01:59:43;22.50;99.90
6379;DHT22;3222;48.858;10.128;2023-07-16T02:02:09;22.60;99.90
6379;DHT22;3222;48.858;10.128;2023-07-16T02:04:36;22.50;99.90
6379;DHT22;3222;48.858;10.128;2023-07-16T02:07:01;22.50;99.90
6379;DHT22;3222;48.858;10.128;2023-07-16T02:09:28;22.50;99.90
6379;DHT22;3222;48.858;10.128;2023-07-16T02:11:54;22.50;99.90
6379;DHT22;3222;48.858;10.128;2023-07-16T02:14:20;22.40;99.90
6379;DHT22;3222;48.858;10.128;2023-07-16T02:16:46;22.40;99.90
6379;DHT22;3222;48.858;10.128;2023-07-16T02:19:11;22.40;99.90
6379;DHT22;3222;48.858;10.128;2023-07-16T02:21:37;22.40;99.90
6379;DHT22;3222;48.858;10.128;2023-07-16T02:24:03;22.30;99.90
6379;DHT22;3222;48.858;10.128;2023-07-16T02:26:29;22.30;99.90
6379;DHT22;3222;48.858;10.128;2023-07-16T02:28:55;22.20;99.90
6379;DHT22;3222;48.858;10.128;2023-07-16T02:31:21;22.20;99.90
6379;DHT22;3222;48.858;10.128;2023-07-16T02:33:46;22.10;99.90
6379;DHT22;3222;48.858;10.128;2023-07-16T02:36:12;22.10;99.90
6379;DHT22;3222;48.858;10.128;2023-07-16T02:38:38;22.10;99.90
6379;DHT22;3222;48.858;10.128;2023-07-16T02:41:03;22.00;99.90
6379;DHT22;3222;48.858;10.128;2023-07-16T02:43:31;22.00;99.90
6379;DHT22;3222;48.858;10.128;2023-07-16T02:45:57;22.00;99.90
6379;DHT22;3222;48.858;10.128;2023-07-16T02:48:24;22.00;99.90
6379;DHT22;3222;48.858;10.128;2023-07-16T02:50:49;22.00;99.90
6379;DHT22;3222;48.858;10.128;2023-07-16T02:53:22;22.10;99.90
6379;DHT22;3222;48.858;10.128;2023-07-16T02:55:48;22.10;99.90
6379;DHT22;3222;48.858;10.128;2023-07-16T02:58:13;22.00;99.90
6379;DHT22;3222;48.858;10.128;2023-07-16T03:00:39;22.00;99.90
6379;DHT22;3222;48.858;10.128;2023-07-16T03:03:05;22.00;99.90
6379;DHT22;3222;48.858;10.128;2023-07-16T03:05:30;22.00;99.90
6379;DHT22;3222;48.858;10.128;2023-07-16T03:07:56;22.00;99.90
6379;DHT22;3222;48.858;10.128;2023-07-16T03:10:22;22.00;99.90
6379;DHT22;3222;48.858;10.128;2023-07-16T03:12:48;21.90;99.90
6379;DHT22;3222;48.858;10.128;2023-07-16T03:15:14;22.00;99.90
6379;DHT22;3222;48.858;10.128;2023-07-16T03:17:39;22.00;99.90
6379;DHT22;3222;48.858;10.128;2023-07-16T03:20:06;22.10;99.90
6379;DHT22;3222;48.858;10.128;2023-07-16T03:22:33;22.10;99.90
6379;DHT22;3222;48.858;10.128;2023-07-16T03:24:58;22.00;99.90
6379;DHT22;3222;48.858;10.128;2023-07-16T03:27:24;22.00;99.90
6379;DHT22;3222;48.858;10.128;2023-07-16T03:29:55;21.90;99.90
6379;DHT22;3222;48.858;10.128;2023-07-16T03:32:21;21.90;99.90
6379;DHT22;3222;48.858;10.128;2023-07-16T03:34:47;21.90;99.90
6379;DHT22;3222;48.858;10.128;2023-07-16T03:37:13;21.90;99.90
6379;DHT22;3222;48.858;10.128;2023-07-16T03:39:38;21.90;99.90
6379;DHT22;3222;48.858;10.128;2023-07-16T03:42:04;21.90;99.90
6379;DHT22;3222;48.858;10.128;2023-07-16T03:44:30;21.90;99.90
6379;DHT22;3222;48.858;10.128;2023-07-16T03:46:57;21.80;99.90
6379;DHT22;3222;48.858;10.128;2023-07-16T03:49:23;21.80;99.90
6379;DHT22;3222;48.858;10.128;2023-07-16T03:51:49;21.80;99.90
6379;DHT22;3222;48.858;10.128;2023-07-16T03:54:14;21.80;99.90
6379;DHT22;3222;48.858;10.128;2023-07-16T03:56:40;21.80;99.90
6379;DHT22;3222;48.858;10.128;2023-07-16T03:59:06;21.80;99.90
6379;DHT22;3222;48.858;10.128;2023-07-16T04:01:31;21.90;99.90
6379;DHT22;3222;48.858;10.128;2023-07-16T04:03:57;21.90;99.90
6379;DHT22;3222;48.858;10.128;2023-07-16T04:06:23;21.80;99.90
6379;DHT22;3222;48.858;10.128;2023-07-16T04:08:48;21.70;99.90
6379;DHT22;3222;48.858;10.128;2023-07-16T04:11:14;21.70;99.90
6379;DHT22;3222;48.858;10.128;2023-07-16T04:13:40;21.60;99.90
6379;DHT22;3222;48.858;10.128;2023-07-16T04:16:06;21.60;99.90
6379;DHT22;3222;48.858;10.128;2023-07-16T04:18:32;21.50;99.90
6379;DHT22;3222;48.858;10.128;2023-07-16T04:20:58;21.50;99.90
6379;DHT22;3222;48.858;10.128;2023-07-16T04:23:23;21.40;99.90
6379;DHT22;3222;48.858;10.128;2023-07-16T04:25:53;21.40;99.90
6379;DHT22;3222;48.858;10.128;2023-07-16T04:28:19;21.40;99.90
6379;DHT22;3222;48.858;10.128;2023-07-16T04:30:45;21.40;99.90
6379;DHT22;3222;48.858;10.128;2023-07-16T04:33:11;21.40;99.90
6379;DHT22;3222;48.858;10.128;2023-07-16T04:35:36;21.30;99.90
6379;DHT22;3222;48.858;10.128;2023-07-16T04:38:02;21.30;99.90
6379;DHT22;3222;48.858;10.128;2023-07-16T04:40:31;21.30;99.90
6379;DHT22;3222;48.858;10.128;2023-07-16T04:42:56;21.30;99.90
6379;DHT22;3222;48.858;10.128;2023-07-16T04:45:22;21.30;99.90
6379;DHT22;3222;48.858;10.128;2023-07-16T04:47:48;21.30;99.90
6379;DHT22;3222;48.858;10.128;2023-07-16T04:50:14;21.20;99.90
6379;DHT22;3222;48.858;10.128;2023-07-16T04:52:39;21.20;99.90
6379;DHT22;3222;48.858;10.128;2023-07-16T04:55:05;21.30;99.90
6379;DHT22;3222;48.858;10.128;2023-07-16T04:57:33;21.20;99.90
6379;DHT22;3222;48.858;10.128;2023-07-16T04:59:59;21.10;99.90
6379;DHT22;3222;48.858;10.128;2023-07-16T05:02:24;21.10;99.90
6379;DHT22;3222;48.858;10.128;2023-07-16T05:04:50;21.10;99.90
6379;DHT22;3222;48.858;10.128;2023-07-16T05:07:16;21.20;99.90
6379;DHT22;3222;48.858;10.128;2023-07-16T05:09:43;21.20;99.90
6379;DHT22;3222;48.858;10.128;2023-07-16T05:12:09;21.20;99.90
6379;DHT22;3222;48.858;10.128;2023-07-16T05:14:44;21.30;99.90
6379;DHT22;3222;48.858;10.128;2023-07-16T05:17:10;21.30;99.90
6379;DHT22;3222;48.858;10.128;2023-07-16T05:19:36;21.30;99.90
6379;DHT22;3222;48.858;10.128;2023-07-16T05:22:02;21.40;99.90
6379;DHT22;3222;48.858;10.128;2023-07-16T05:24:28;21.40;99.90
6379;DHT22;3222;48.858;10.128;2023-07-16T05:26:53;21.30;99.90
6379;DHT22;3222;48.858;10.128;2023-07-16T05:29:20;21.30;99.90
6379;DHT22;3222;48.858;10.128;2023-07-16T05:31:45;21.20;99.90
6379;DHT22;3222;48.858;10.128;2023-07-16T05:34:12;21.30;99.90
6379;DHT22;3222;48.858;10.128;2023-07-16T05:36:37;21.30;99.90
6379;DHT22;3222;48.858;10.128;2023-07-16T05:39:03;21.20;99.90
6379;DHT22;3222;48.858;10.128;2023-07-16T05:41:29;21.20;99.90
6379;DHT22;3222;48.858;10.128;2023-07-16T05:43:55;21.10;99.90
6379;DHT22;3222;48.858;10.128;2023-07-16T05:46:21;21.20;99.90
6379;DHT22;3222;48.858;10.128;2023-07-16T05:48:46;21.10;99.90
6379;DHT22;3222;48.858;10.128;2023-07-16T05:51:12;21.00;99.90
6379;DHT22;3222;48.858;10.128;2023-07-16T05:53:38;21.00;99.90
6379;DHT22;3222;48.858;10.128;2023-07-16T05:56:03;21.00;99.90
6379;DHT22;3222;48.858;10.128;2023-07-16T05:58:29;20.90;99.90
6379;DHT22;3222;48.858;10.128;2023-07-16T06:00:55;20.90;99.90
6379;DHT22;3222;48.858;10.128;2023-07-16T06:03:20;20.90;99.90
6379;DHT22;3222;48.858;10.128;2023-07-16T06:05:46;20.80;99.90
6379;DHT22;3222;48.858;10.128;2023-07-16T06:08:12;20.70;99.90
6379;DHT22;3222;48.858;10.128;2023-07-16T06:10:38;20.70;99.90
6379;DHT22;3222;48.858;10.128;2023-07-16T06:13:04;20.70;99.90
6379;DHT22;3222;48.858;10.128;2023-07-16T06:15:30;20.70;99.90
6379;DHT22;3222;48.858;10.128;2023-07-16T06:17:56;20.90;99.90
6379;DHT22;3222;48.858;10.128;2023-07-16T06:20:22;20.90;99.90
6379;DHT22;3222;48.858;10.128;2023-07-16T06:22:47;20.90;99.90
6379;DHT22;3222;48.858;10.128;2023-07-16T06:25:13;20.90;99.90
6379;DHT22;3222;48.858;10.128;2023-07-16T06:27:38;20.90;99.90
6379;DHT22;3222;48.858;10.128;2023-07-16T06:30:05;20.90;99.90
6379;DHT22;3222;48.858;10.128;2023-07-16T06:32:31;20.70;99.90
6379;DHT22;3222;48.858;10.128;2023-07-16T06:34:57;20.70;99.90
6379;DHT22;3222;48.858;10.128;2023-07-16T06:37:23;20.70;99.90
6379;DHT22;3222;48.858;10.128;2023-07-16T06:39:49;20.70;99.90
6379;DHT22;3222;48.858;10.128;2023-07-16T06:42:15;20.70;99.90
6379;DHT22;3222;48.858;10.128;2023-07-16T06:44:41;20.70;99.90
6379;DHT22;3222;48.858;10.128;2023-07-16T06:47:07;20.60;99.90
6379;DHT22;3222;48.858;10.128;2023-07-16T06:49:33;20.50;99.90
6379;DHT22;3222;48.858;10.128;2023-07-16T06:52:02;20.50;99.90
6379;DHT22;3222;48.858;10.128;2023-07-16T06:54:28;20.40;99.90
6379;DHT22;3222;48.858;10.128;2023-07-16T06:56:54;20.40;99.90
6379;DHT22;3222;48.858;10.128;2023-07-16T06:59:20;20.30;99.90
6379;DHT22;3222;48.858;10.128;2023-07-16T07:01:45;20.30;99.90
6379;DHT22;3222;48.858;10.128;2023-07-16T07:04:11;20.30;99.90
6379;DHT22;3222;48.858;10.128;2023-07-16T07:06:37;20.40;99.90
6379;DHT22;3222;48.858;10.128;2023-07-16T07:09:03;20.30;99.90
6379;DHT22;3222;48.858;10.128;2023-07-16T07:11:29;20.30;99.90
6379;DHT22;3222;48.858;10.128;2023-07-16T07:13:54;20.40;99.90
6379;DHT22;3222;48.858;10.128;2023-07-16T07:16:22;20.30;99.90
6379;DHT22;3222;48.858;10.128;2023-07-16T07:18:48;20.40;99.90
6379;DHT22;3222;48.858;10.128;2023-07-16T07:21:14;20.40;99.90
6379;DHT22;3222;48.858;10.128;2023-07-16T07:23:40;20.50;99.90
6379;DHT22;3222;48.858;10.128;2023-07-16T07:26:06;20.50;99.90
6379;DHT22;3222;48.858;10.128;2023-07-16T07:28:31;20.50;99.90
6379;DHT22;3222;48.858;10.128;2023-07-16T07:30:57;20.50;99.90
6379;DHT22;3222;48.858;10.128;2023-07-16T07:33:23;20.50;99.90
6379;DHT22;3222;48.858;10.128;2023-07-16T07:35:48;20.40;99.90
6379;DHT22;3222;48.858;10.128;2023-07-16T07:38:14;20.50;99.90
6379;DHT22;3222;48.858;10.128;2023-07-16T07:40:42;20.60;99.90
6379;DHT22;3222;48.858;10.128;2023-07-16T07:43:08;20.60;99.90
6379;DHT22;3222;48.858;10.128;2023-07-16T07:45:34;20.60;99.90
6379;DHT22;3222;48.858;10.128;2023-07-16T07:47:59;20.50;99.90
6379;DHT22;3222;48.858;10.128;2023-07-16T07:50:25;20.40;99.90
6379;DHT22;3222;48.858;10.128;2023-07-16T07:52:51;20.50;99.90
6379;DHT22;3222;48.858;10.128;2023-07-16T07:55:17;20.50;99.90
6379;DHT22;3222;48.858;10.128;2023-07-16T07:57:42;20.50;99.90
6379;DHT22;3222;48.858;10.128;2023-07-16T08:00:08;20.60;99.90
6379;DHT22;3222;48.858;10.128;2023-07-16T08:02:38;20.70;99.90
6379;DHT22;3222;48.858;10.128;2023-07-16T08:05:04;20.70;99.90
6379;DHT22;3222;48.858;10.128;2023-07-16T08:07:30;20.70;99.90
6379;DHT22;3222;48.858;10.128;2023-07-16T08:09:55;20.80;99.90
6379;DHT22;3222;48.858;10.128;2023-07-16T08:12:21;20.70;99.90
6379;DHT22;3222;48.858;10.128;2023-07-16T08:14:47;20.80;99.90
6379;DHT22;3222;48.858;10.128;2023-07-16T08:17:14;20.90;99.90
6379;DHT22;3222;48.858;10.128;2023-07-16T08:19:39;20.90;99.90
6379;DHT22;3222;48.858;10.128;2023-07-16T08:22:05;20.90;99.90
6379;DHT22;3222;48.858;10.128;2023-07-16T08:24:31;21.00;99.90
6379;DHT22;3222;48.858;10.128;2023-07-16T08:26:56;21.00;99.90
6379;DHT22;3222;48.858;10.128;2023-07-16T08:29:22;21.00;99.90
6379;DHT22;3222;48.858;10.128;2023-07-16T08:31:48;21.00;99.90
6379;DHT22;3222;48.858;10.128;2023-07-16T08:34:13;21.00;99.90
6379;DHT22;3222;48.858;10.128;2023-07-16T08:36:39;21.00;99.90
6379;DHT22;3222;48.858;10.128;2023-07-16T08:39:05;21.00;99.90
6379;DHT22;3222;48.858;10.128;2023-07-16T08:41:31;21.00;99.90
6379;DHT22;3222;48.858;10.128;2023-07-16T08:43:57;21.00;99.90
6379;DHT22;3222;48.858;10.128;2023-07-16T08:46:23;21.00;99.90
6379;DHT22;3222;48.858;10.128;2023-07-16T08:48:49;21.10;99.90
6379;DHT22;3222;48.858;10.128;2023-07-16T08:51:16;21.10;99.90
6379;DHT22;3222;48.858;10.128;2023-07-16T08:53:42;21.10;99.90
6379;DHT22;3222;48.858;10.128;2023-07-16T08:56:08;21.10;99.90
6379;DHT22;3222;48.858;10.128;2023-07-16T08:58:34;21.20;99.90
6379;DHT22;3222;48.858;10.128;2023-07-16T09:01:01;21.30;99.90
6379;DHT22;3222;48.858;10.128;2023-07-16T09:03:26;21.30;99.90
6379;DHT22;3222;48.858;10.128;2023-07-16T09:05:53;21.30;99.90
6379;DHT22;3222;48.858;10.128;2023-07-16T09:08:19;21.20;99.90
6379;DHT22;3222;48.858;10.128;2023-07-16T09:10:56;21.30;99.90
6379;DHT22;3222;48.858;10.128;2023-07-16T09:13:24;21.20;99.90
6379;DHT22;3222;48.858;10.128;2023-07-16T09:15:58;21.20;99.90
6379;DHT22;3222;48.858;10.128;2023-07-16T09:18:27;21.20;99.90
6379;DHT22;3222;48.858;10.128;2023-07-16T09:20:59;21.10;99.90
6379;DHT22;3222;48.858;10.128;2023-07-16T09:23:29;21.10;99.90
6379;DHT22;3222;48.858;10.128;2023-07-16T09:25:56;21.10;99.90
6379;DHT22;3222;48.858;10.128;2023-07-16T09:28:21;21.10;99.90
6379;DHT22;3222;48.858;10.128;2023-07-16T09:30:48;21.10;99.90
6379;DHT22;3222;48.858;10.128;2023-07-16T09:33:16;21.00;99.90
6379;DHT22;3222;48.858;10.128;2023-07-16T09:35:43;21.10;99.90
6379;DHT22;3222;48.858;10.128;2023-07-16T09:38:10;21.30;99.90
6379;DHT22;3222;48.858;10.128;2023-07-16T09:40:37;21.30;99.60
6379;DHT22;3222;48.858;10.128;2023-07-16T09:43:03;21.30;99.60
6379;DHT22;3222;48.858;10.128;2023-07-16T09:45:30;21.30;99.90
6379;DHT22;3222;48.858;10.128;2023-07-16T09:47:55;21.30;99.90
6379;DHT22;3222;48.858;10.128;2023-07-16T09:50:27;21.40;99.90
6379;DHT22;3222;48.858;10.128;2023-07-16T09:52:54;21.50;99.90
6379;DHT22;3222;48.858;10.128;2023-07-16T09:55:22;21.60;99.20
6379;DHT22;3222;48.858;10.128;2023-07-16T09:57:49;21.50;99.80
6379;DHT22;3222;48.858;10.128;2023-07-16T10:00:17;21.60;99.80
6379;DHT22;3222;48.858;10.128;2023-07-16T10:02:44;21.70;99.50
6379;DHT22;3222;48.858;10.128;2023-07-16T10:05:13;21.70;98.50
6379;DHT22;3222;48.858;10.128;2023-07-16T10:07:40;21.60;99.10
6379;DHT22;3222;48.858;10.128;2023-07-16T10:10:14;21.50;99.60
6379;DHT22;3222;48.858;10.128;2023-07-16T10:12:43;21.50;99.90
6379;DHT22;3222;48.858;10.128;2023-07-16T10:15:26;21.50;99.90
6379;DHT22;3222;48.858;10.128;2023-07-16T10:17:53;21.60;99.20
6379;DHT22;3222;48.858;10.128;2023-07-16T10:20:28;21.70;99.50
6379;DHT22;3222;48.858;10.128;2023-07-16T10:22:54;21.70;99.60
6379;DHT22;3222;48.858;10.128;2023-07-16T10:27:47;21.60;99.70
6379;DHT22;3222;48.858;10.128;2023-07-16T10:30:13;21.70;99.80
6379;DHT22;3222;48.858;10.128;2023-07-16T10:32:39;21.60;99.60
6379;DHT22;3222;48.858;10.128;2023-07-16T10:35:06;21.60;99.70
6379;DHT22;3222;48.858;10.128;2023-07-16T10:37:34;21.70;99.70
6379;DHT22;3222;48.858;10.128;2023-07-16T10:40:02;21.60;99.70
6379;DHT22;3222;48.858;10.128;2023-07-16T10:42:30;21.70;99.60
6379;DHT22;3222;48.858;10.128;2023-07-16T10:45:03;21.70;99.70
6379;DHT22;3222;48.858;10.128;2023-07-16T10:47:34;21.80;99.20
6379;DHT22;3222;48.858;10.128;2023-07-16T10:50:03;21.90;99.10
6379;DHT22;3222;48.858;10.128;2023-07-16T10:52:30;21.80;99.10
6379;DHT22;3222;48.858;10.128;2023-07-16T10:54:56;22.00;99.20
6379;DHT22;3222;48.858;10.128;2023-07-16T10:57:27;22.10;99.20
6379;DHT22;3222;48.858;10.128;2023-07-16T10:59:58;22.20;99.10
6379;DHT22;3222;48.858;10.128;2023-07-16T11:02:25;22.40;98.90
6379;DHT22;3222;48.858;10.128;2023-07-16T11:04:52;22.30;98.80
6379;DHT22;3222;48.858;10.128;2023-07-16T11:07:20;22.30;98.90
6379;DHT22;3222;48.858;10.128;2023-07-16T11:09:48;22.30;98.70
6379;DHT22;3222;48.858;10.128;2023-07-16T11:12:16;22.30;98.80
6379;DHT22;3222;48.858;10.128;2023-07-16T11:14:47;22.40;98.20
6379;DHT22;3222;48.858;10.128;2023-07-16T11:17:13;22.50;98.60
6379;DHT22;3222;48.858;10.128;2023-07-16T11:19:41;22.50;99.00
6379;DHT22;3222;48.858;10.128;2023-07-16T11:22:10;22.40;98.90
6379;DHT22;3222;48.858;10.128;2023-07-16T11:24:37;22.40;99.10
6379;DHT22;3222;48.858;10.128;2023-07-16T11:27:03;22.30;99.10
6379;DHT22;3222;48.858;10.128;2023-07-16T11:29:36;22.40;98.70
6379;DHT22;3222;48.858;10.128;2023-07-16T11:32:02;22.40;98.60
6379;DHT22;3222;48.858;10.128;2023-07-16T11:34:28;22.50;98.40
6379;DHT22;3222;48.858;10.128;2023-07-16T11:36:53;22.50;98.70
6379;DHT22;3222;48.858;10.128;2023-07-16T11:39:19;22.40;98.80
6379;DHT22;3222;48.858;10.128;2023-07-16T11:41:58;22.50;98.90
6379;DHT22;3222;48.858;10.128;2023-07-16T11:44:24;22.60;98.70
6379;DHT22;3222;48.858;10.128;2023-07-16T11:46:50;22.60;98.90
6379;DHT22;3222;48.858;10.128;2023-07-16T11:49:16;22.60;98.80
6379;DHT22;3222;48.858;10.128;2023-07-16T11:51:42;22.80;98.60
6379;DHT22;3222;48.858;10.128;2023-07-16T11:54:10;23.00;98.30
6379;DHT22;3222;48.858;10.128;2023-07-16T11:56:36;23.00;98.00
6379;DHT22;3222;48.858;10.128;2023-07-16T11:59:02;23.00;98.00
6379;DHT22;3222;48.858;10.128;2023-07-16T12:01:27;22.90;98.30
6379;DHT22;3222;48.858;10.128;2023-07-16T12:03:53;22.80;98.40
6379;DHT22;3222;48.858;10.128;2023-07-16T12:06:19;22.70;98.40
6379;DHT22;3222;48.858;10.128;2023-07-16T12:08:45;22.60;98.50
6379;DHT22;3222;48.858;10.128;2023-07-16T12:11:10;22.80;98.60
6379;DHT22;3222;48.858;10.128;2023-07-16T12:13:36;22.90;98.50
6379;DHT22;3222;48.858;10.128;2023-07-16T12:16:03;22.90;98.50
6379;DHT22;3222;48.858;10.128;2023-07-16T12:18:28;23.00;98.40
6379;DHT22;3222;48.858;10.128;2023-07-16T12:20:56;22.90;98.50
6379;DHT22;3222;48.858;10.128;2023-07-16T12:23:22;22.90;98.40
6379;DHT22;3222;48.858;10.128;2023-07-16T12:25:49;23.10;97.50
6379;DHT22;3222;48.858;10.128;2023-07-16T12:28:15;23.10;97.20
6379;DHT22;3222;48.858;10.128;2023-07-16T12:30:41;23.20;97.70
6379;DHT22;3222;48.858;10.128;2023-07-16T12:33:07;23.30;97.80
6379;DHT22;3222;48.858;10.128;2023-07-16T12:35:33;23.40;97.40
6379;DHT22;3222;48.858;10.128;2023-07-16T12:37:58;23.50;97.20
6379;DHT22;3222;48.858;10.128;2023-07-16T12:40:25;23.50;97.40
6379;DHT22;3222;48.858;10.128;2023-07-16T12:42:51;23.40;97.50
6379;DHT22;3222;48.858;10.128;2023-07-16T12:45:16;23.40;97.80
6379;DHT22;3222;48.858;10.128;2023-07-16T12:47:42;23.50;97.10
6379;DHT22;3222;48.858;10.128;2023-07-16T12:50:08;23.50;97.10
6379;DHT22;3222;48.858;10.128;2023-07-16T12:52:34;23.50;97.30
6379;DHT22;3222;48.858;10.128;2023-07-16T12:55:00;23.50;97.50
6379;DHT22;3222;48.858;10.128;2023-07-16T12:57:25;23.40;97.30
6379;DHT22;3222;48.858;10.128;2023-07-16T12:59:51;23.50;97.20
6379;DHT22;3222;48.858;10.128;2023-07-16T13:02:17;23.50;97.00
6379;DHT22;3222;48.858;10.128;2023-07-16T13:04:42;23.60;96.50
6379;DHT22;3222;48.858;10.128;2023-07-16T13:07:10;23.60;96.40
6379;DHT22;3222;48.858;10.128;2023-07-16T13:09:36;23.60;96.40
6379;DHT22;3222;48.858;10.128;2023-07-16T13:12:01;23.60;96.30
6379;DHT22;3222;48.858;10.128;2023-07-16T13:14:28;23.60;96.10
6379;DHT22;3222;48.858;10.128;2023-07-16T13:16:54;23.50;96.20
6379;DHT22;3222;48.858;10.128;2023-07-16T13:19:20;23.40;96.30
6379;DHT22;3222;48.858;10.128;2023-07-16T13:21:46;23.40;96.60
6379;DHT22;3222;48.858;10.128;2023-07-16T13:24:11;23.40;96.70
6379;DHT22;3222;48.858;10.128;2023-07-16T13:26:37;23.50;96.30
6379;DHT22;3222;48.858;10.128;2023-07-16T13:29:03;23.40;96.50
6379;DHT22;3222;48.858;10.128;2023-07-16T13:31:29;23.50;96.50
6379;DHT22;3222;48.858;10.128;2023-07-16T13:33:55;23.50;96.40
6379;DHT22;3222;48.858;10.128;2023-07-16T13:36:21;23.60;96.30
6379;DHT22;3222;48.858;10.128;2023-07-16T13:38:46;23.50;96.40
6379;DHT22;3222;48.858;10.128;2023-07-16T13:41:12;23.50;96.40
6379;DHT22;3222;48.858;10.128;2023-07-16T13:43:38;23.60;96.40
6379;DHT22;3222;48.858;10.128;2023-07-16T13:46:04;23.60;96.40
6379;DHT22;3222;48.858;10.128;2023-07-16T13:48:30;23.70;96.30
6379;DHT22;3222;48.858;10.128;2023-07-16T13:50:55;23.70;95.70
6379;DHT22;3222;48.858;10.128;2023-07-16T13:53:22;23.70;96.00
6379;DHT22;3222;48.858;10.128;2023-07-16T13:55:48;23.70;95.90
6379;DHT22;3222;48.858;10.128;2023-07-16T13:58:14;23.70;95.80
6379;DHT22;3222;48.858;10.128;2023-07-16T14:00:40;23.60;95.80
6379;DHT22;3222;48.858;10.128;2023-07-16T14:03:05;23.50;96.00
6379;DHT22;3222;48.858;10.128;2023-07-16T14:05:31;23.60;96.10
6379;DHT22;3222;48.858;10.128;2023-07-16T14:08:07;23.60;96.40
6379;DHT22;3222;48.858;10.128;2023-07-16T14:10:33;23.80;96.20
6379;DHT22;3222;48.858;10.128;2023-07-16T14:12:59;23.80;96.20
6379;DHT22;3222;48.858;10.128;2023-07-16T14:15:25;23.80;96.50
6379;DHT22;3222;48.858;10.128;2023-07-16T14:17:50;23.80;95.90
6379;DHT22;3222;48.858;10.128;2023-07-16T14:20:16;23.80;96.10
6379;DHT22;3222;48.858;10.128;2023-07-16T14:22:42;23.70;96.00
6379;DHT22;3222;48.858;10.128;2023-07-16T14:25:07;23.70;96.10
6379;DHT22;3222;48.858;10.128;2023-07-16T14:27:34;23.70;96.20
6379;DHT22;3222;48.858;10.128;2023-07-16T14:30:01;23.90;95.80
6379;DHT22;3222;48.858;10.128;2023-07-16T14:32:26;24.00;95.30
6379;DHT22;3222;48.858;10.128;2023-07-16T14:34:52;24.00;95.10
6379;DHT22;3222;48.858;10.128;2023-07-16T14:37:18;23.90;95.40
6379;DHT22;3222;48.858;10.128;2023-07-16T14:39:44;23.90;95.50
6379;DHT22;3222;48.858;10.128;2023-07-16T14:42:10;24.00;95.40
6379;DHT22;3222;48.858;10.128;2023-07-16T14:44:37;24.10;95.20
6379;DHT22;3222;48.858;10.128;2023-07-16T14:47:03;24.00;95.10
6379;DHT22;3222;48.858;10.128;2023-07-16T14:49:29;24.00;95.20
6379;DHT22;3222;48.858;10.128;2023-07-16T14:51:55;24.00;95.40
6379;DHT22;3222;48.858;10.128;2023-07-16T14:54:21;24.00;95.10
6379;DHT22;3222;48.858;10.128;2023-07-16T14:56:46;24.10;95.00
6379;DHT22;3222;48.858;10.128;2023-07-16T14:59:13;24.10;95.00
6379;DHT22;3222;48.858;10.128;2023-07-16T15:01:38;24.30;95.10
6379;DHT22;3222;48.858;10.128;2023-07-16T15:04:05;24.30;94.80
6379;DHT22;3222;48.858;10.128;2023-07-16T15:06:30;24.40;94.70
6379;DHT22;3222;48.858;10.128;2023-07-16T15:08:56;24.50;94.60
6379;DHT22;3222;48.858;10.128;2023-07-16T15:11:23;24.50;94.60
6379;DHT22;3222;48.858;10.128;2023-07-16T15:13:48;24.60;94.40
6379;DHT22;3222;48.858;10.128;2023-07-16T15:16:14;24.50;94.50
6379;DHT22;3222;48.858;10.128;2023-07-16T15:18:40;24.40;94.70
6379;DHT22;3222;48.858;10.128;2023-07-16T15:21:05;24.40;94.80
6379;DHT22;3222;48.858;10.128;2023-07-16T15:23:31;24.50;94.70
6379;DHT22;3222;48.858;10.128;2023-07-16T15:26:03;24.60;94.50
6379;DHT22;3222;48.858;10.128;2023-07-16T15:28:30;24.60;94.30
6379;DHT22;3222;48.858;10.128;2023-07-16T15:31:02;24.60;93.90
6379;DHT22;3222;48.858;10.128;2023-07-16T15:33:28;24.50;94.20
6379;DHT22;3222;48.858;10.128;2023-07-16T15:35:58;24.40;94.10
6379;DHT22;3222;48.858;10.128;2023-07-16T15:38:26;24.50;93.80
6379;DHT22;3222;48.858;10.128;2023-07-16T15:40:52;24.40;94.10
6379;DHT22;3222;48.858;10.128;2023-07-16T15:43:18;24.50;93.80
6379;DHT22;3222;48.858;10.128;2023-07-16T15:45:44;24.80;93.20
6379;DHT22;3222;48.858;10.128;2023-07-16T15:48:10;24.80;93.30